Time;durP1;ratioP1;P1;durP2;ratioP2;P2;SDS_P1;SDS_P2;PMS_P1;PMS_P2;Temp;Humidity;BMP_temperature;BMP_pressure;BME280_temperature;BME280_humidity;BME280_pressure;Samples;Min_cycle;Max_cycle;Signal;HPM_P1;HPM_P2
2022/07/13 00:01:21;;;;;;;;;;;;;;;18.22;100.00;101515.03;5026115;28;19913;-76
2022/07/13 00:03:46;;;;;;;;;;;;;;;18.24;100.00;101509.44;5027325;28;19920;-74
2022/07/13 00:06:12;;;;;;;;;;;;;;;18.22;100.00;101509.63;5027334;28;19913;-74
2022/07/13 00:08:37;;;;;;;;;;;;;;;18.23;100.00;101516.69;5027220;28;19909;-75
2022/07/13 00:11:02;;;;;;;;;;;;;;;18.00;100.00;101522.31;5025778;28;19938;-76
2022/07/13 00:13:28;;;;;;;;;;;;;;;18.07;100.00;101533.19;5014189;28;19909;-75
2022/07/13 00:15:53;;;;;;;;;;;;;;;18.09;100.00;101564.38;5022301;28;19944;-75
2022/07/13 00:18:18;;;;;;;;;;;;;;;18.06;100.00;101559.38;5026841;28;19963;-75
2022/07/13 00:20:45;;;;;;;;;;;;;;;18.03;100.00;101575.16;5027118;28;20309;-76
2022/07/13 00:23:10;;;;;;;;;;;;;;;18.02;100.00;101568.06;5025466;28;19920;-75
2022/07/13 00:25:35;;;;;;;;;;;;;;;17.98;100.00;101564.91;5026902;28;19916;-75
2022/07/13 00:28:01;;;;;;;;;;;;;;;18.00;100.00;101553.91;5026606;28;19920;-75
2022/07/13 00:30:26;;;;;;;;;;;;;;;17.92;100.00;101560.25;5026639;28;19913;-75
2022/07/13 00:32:51;;;;;;;;;;;;;;;17.96;100.00;101560.69;5010087;28;19920;-76
2022/07/13 00:35:17;;;;;;;;;;;;;;;17.90;100.00;101570.41;5025559;28;19917;-75
2022/07/13 00:37:43;;;;;;;;;;;;;;;17.91;100.00;101578.34;5025318;28;20370;-76
2022/07/13 00:40:09;;;;;;;;;;;;;;;17.87;100.00;101543.81;5026346;28;19913;-75
2022/07/13 00:42:34;;;;;;;;;;;;;;;17.83;100.00;101546.03;5025414;28;19935;-75
2022/07/13 00:44:59;;;;;;;;;;;;;;;17.87;100.00;101527.59;5017697;28;19939;-75
2022/07/13 00:47:29;;;;;;;;;;;;;;;17.91;100.00;101512.66;5026296;28;19915;-75
2022/07/13 00:49:55;;;;;;;;;;;;;;;17.92;100.00;101515.16;5025172;28;20386;-76
2022/07/13 00:52:20;;;;;;;;;;;;;;;17.95;100.00;101530.16;5025004;28;19912;-75
2022/07/13 00:54:45;;;;;;;;;;;;;;;17.88;100.00;101532.78;5024981;28;19923;-75
2022/07/13 00:57:14;;;;;;;;;;;;;;;17.91;100.00;101545.06;5024733;28;19913;-75
2022/07/13 00:59:41;;;;;;;;;;;;;;;17.86;100.00;101545.66;5024888;28;19917;-74
2022/07/13 01:02:06;;;;;;;;;;;;;;;17.90;100.00;101527.19;5025148;28;20015;-75
2022/07/13 01:04:32;;;;;;;;;;;;;;;17.89;100.00;101525.53;5025126;28;19913;-75
2022/07/13 01:06:58;;;;;;;;;;;;;;;17.98;100.00;101518.13;5023054;28;19967;-74
2022/07/13 01:09:24;;;;;;;;;;;;;;;18.08;100.00;101486.22;5024270;28;20779;-75
2022/07/13 01:11:50;;;;;;;;;;;;;;;18.20;100.00;101451.41;5024415;28;19909;-75
2022/07/13 01:14:16;;;;;;;;;;;;;;;18.27;100.00;101449.59;5024170;28;19924;-75
2022/07/13 01:16:42;;;;;;;;;;;;;;;18.19;100.00;101441.63;5025356;28;19912;-75
2022/07/13 01:19:10;;;;;;;;;;;;;;;18.21;100.00;101448.50;5025241;28;19917;-75
2022/07/13 01:21:36;;;;;;;;;;;;;;;18.19;100.00;101444.31;5016916;28;20389;-76
2022/07/13 01:24:02;;;;;;;;;;;;;;;18.24;100.00;101448.13;5023786;28;19912;-76
2022/07/13 01:26:28;;;;;;;;;;;;;;;18.23;100.00;101464.53;5024214;28;20392;-75
2022/07/13 01:28:53;;;;;;;;;;;;;;;18.13;100.00;101490.00;5024879;28;20381;-75
2022/07/13 01:31:34;;;;;;;;;;;;;;;18.06;100.00;101501.81;5024058;28;20408;-75
2022/07/13 01:33:59;;;;;;;;;;;;;;;18.03;100.00;101521.13;5018310;28;20424;-75
2022/07/13 01:36:25;;;;;;;;;;;;;;;17.98;100.00;101519.00;5024865;28;19913;-75
2022/07/13 01:38:50;;;;;;;;;;;;;;;17.97;100.00;101506.50;5025357;28;19956;-75
2022/07/13 01:41:18;;;;;;;;;;;;;;;17.97;100.00;101498.38;5025014;28;20342;-77
2022/07/13 01:43:46;;;;;;;;;;;;;;;17.91;100.00;101513.50;5023798;28;19928;-75
2022/07/13 01:46:11;;;;;;;;;;;;;;;17.96;100.00;101499.44;5023883;28;19909;-75
2022/07/13 01:48:36;;;;;;;;;;;;;;;18.07;100.00;101479.97;5023609;28;19923;-75
2022/07/13 01:51:02;;;;;;;;;;;;;;;18.14;100.00;101461.97;5023762;28;19917;-75
2022/07/13 01:53:27;;;;;;;;;;;;;;;18.08;100.00;101453.81;5023821;28;19921;-75
2022/07/13 01:55:52;;;;;;;;;;;;;;;18.08;100.00;101448.41;5023850;28;19909;-75
2022/07/13 01:58:18;;;;;;;;;;;;;;;18.08;100.00;101454.63;5023607;28;19972;-75
2022/07/13 02:00:44;;;;;;;;;;;;;;;18.11;100.00;101459.66;5023798;28;20441;-75
2022/07/13 02:03:09;;;;;;;;;;;;;;;18.03;100.00;101467.91;5023683;28;20378;-76
2022/07/13 02:05:35;;;;;;;;;;;;;;;18.03;100.00;101494.91;5023689;28;19912;-75
2022/07/13 02:08:00;;;;;;;;;;;;;;;17.90;100.00;101490.22;5027145;28;20341;-75
2022/07/13 02:10:34;;;;;;;;;;;;;;;17.99;100.00;101482.00;5027081;28;19913;-75
2022/07/13 02:13:01;;;;;;;;;;;;;;;17.99;100.00;101482.00;5027680;28;20303;-75
2022/07/13 02:15:27;;;;;;;;;;;;;;;18.02;100.00;101465.38;5010810;28;19909;-75
2022/07/13 02:17:52;;;;;;;;;;;;;;;18.03;100.00;101461.66;5027280;28;20337;-76
2022/07/13 02:20:17;;;;;;;;;;;;;;;18.04;100.00;101460.63;5010447;28;19909;-76
2022/07/13 02:22:43;;;;;;;;;;;;;;;18.06;100.00;101451.28;5027065;28;20477;-76
2022/07/13 02:25:09;;;;;;;;;;;;;;;18.02;100.00;101473.50;5019542;28;20357;-76
2022/07/13 02:27:35;;;;;;;;;;;;;;;17.92;100.00;101487.31;5026987;28;19921;-76
2022/07/13 02:30:00;;;;;;;;;;;;;;;17.88;100.00;101502.25;5027116;28;19917;-76
2022/07/13 02:32:25;;;;;;;;;;;;;;;17.78;100.00;101513.34;5026921;28;19919;-76
2022/07/13 02:34:51;;;;;;;;;;;;;;;17.72;100.00;101506.84;5027148;28;19943;-76
2022/07/13 02:37:16;;;;;;;;;;;;;;;17.64;100.00;101495.31;5026826;28;19921;-76
2022/07/13 02:39:42;;;;;;;;;;;;;;;17.71;100.00;101470.03;5010271;28;19909;-75
2022/07/13 02:42:08;;;;;;;;;;;;;;;17.80;100.00;101441.06;5026652;28;20297;-75
2022/07/13 02:44:33;;;;;;;;;;;;;;;17.85;100.00;101430.53;5028543;28;20361;-75
2022/07/13 02:46:59;;;;;;;;;;;;;;;17.86;100.00;101428.66;5027036;28;19940;-75
2022/07/13 02:49:24;;;;;;;;;;;;;;;17.86;100.00;101434.06;5026342;28;19963;-75
2022/07/13 02:51:49;;;;;;;;;;;;;;;17.85;100.00;101448.63;5026727;28;19917;-75
2022/07/13 02:54:16;;;;;;;;;;;;;;;17.85;100.00;101448.63;5026504;28;19908;-76
2022/07/13 02:56:41;;;;;;;;;;;;;;;17.79;100.00;101465.56;5026661;28;19919;-75
2022/07/13 02:59:06;;;;;;;;;;;;;;;17.69;100.00;101480.19;5026209;28;19913;-75
2022/07/13 03:01:32;;;;;;;;;;;;;;;17.73;100.00;101476.09;5026743;28;19916;-75
2022/07/13 03:03:57;;;;;;;;;;;;;;;17.67;100.00;101474.16;5026464;28;19983;-75
2022/07/13 03:06:23;;;;;;;;;;;;;;;17.68;100.00;101478.53;5026263;28;20369;-76
2022/07/13 03:08:48;;;;;;;;;;;;;;;17.69;100.00;101480.19;5025869;28;19917;-76
2022/07/13 03:11:13;;;;;;;;;;;;;;;17.69;100.00;101479.38;5026274;28;19921;-76
2022/07/13 03:13:39;;;;;;;;;;;;;;;17.62;100.00;101482.00;5026416;28;19913;-76
2022/07/13 03:16:04;;;;;;;;;;;;;;;17.55;100.00;101491.06;5026181;28;19948;-76
2022/07/13 03:18:29;;;;;;;;;;;;;;;17.57;100.00;101489.84;5008839;28;20407;-76
2022/07/13 03:20:55;;;;;;;;;;;;;;;17.59;100.00;101486.97;5025982;28;19912;-76
2022/07/13 03:23:20;;;;;;;;;;;;;;;17.53;100.00;101485.84;5027175;28;19913;-75
2022/07/13 03:25:46;;;;;;;;;;;;;;;17.51;100.00;101490.59;5026079;28;20035;-75
2022/07/13 03:28:12;;;;;;;;;;;;;;;17.48;100.00;101489.09;5027201;28;19917;-75
2022/07/13 03:30:38;;;;;;;;;;;;;;;17.47;100.00;101475.81;5025927;28;19921;-75
2022/07/13 03:33:03;;;;;;;;;;;;;;;17.50;100.00;101478.13;5025938;28;20437;-75
2022/07/13 03:35:29;;;;;;;;;;;;;;;17.58;100.00;101458.28;5026951;28;20212;-78
2022/07/13 03:37:55;;;;;;;;;;;;;;;17.60;100.00;101448.94;5009639;28;19913;-74
2022/07/13 03:40:25;;;;;;;;;;;;;;;17.67;100.00;101438.22;5025852;28;19928;-78
2022/07/13 03:42:51;;;;;;;;;;;;;;;17.76;100.00;101422.72;5009661;28;19917;-74
2022/07/13 03:45:17;;;;;;;;;;;;;;;17.84;100.00;101411.81;5009580;28;20451;-74
2022/07/13 03:47:42;;;;;;;;;;;;;;;17.93;100.00;101391.75;5025764;28;19995;-74
2022/07/13 03:50:08;;;;;;;;;;;;;;;18.05;100.00;101382.09;5025686;28;19909;-75
2022/07/13 03:52:34;;;;;;;;;;;;;;;18.11;100.00;101366.94;5025486;28;19917;-78
2022/07/13 03:55:00;;;;;;;;;;;;;;;18.17;100.00;101366.16;5025714;28;19913;-75
2022/07/13 03:57:25;;;;;;;;;;;;;;;18.19;100.00;101365.94;5025570;28;19966;-77
2022/07/13 03:59:51;;;;;;;;;;;;;;;18.18;100.00;101375.94;5025491;28;19913;-74
2022/07/13 04:02:18;;;;;;;;;;;;;;;18.16;100.00;101379.88;5025878;28;19983;-74
2022/07/13 04:04:43;;;;;;;;;;;;;;;18.19;100.00;101401.94;5009998;28;20461;-76
2022/07/13 04:07:08;;;;;;;;;;;;;;;18.20;100.00;101424.38;5027491;28;19924;-76
2022/07/13 04:09:34;;;;;;;;;;;;;;;18.12;100.00;101445.13;5027068;28;20309;-75
2022/07/13 04:11:59;;;;;;;;;;;;;;;18.06;100.00;101435.09;5028976;28;19916;-74
2022/07/13 04:14:24;;;;;;;;;;;;;;;18.16;100.00;101421.22;5027776;28;19909;-75
2022/07/13 04:16:50;;;;;;;;;;;;;;;18.18;100.00;101410.22;5026831;28;19920;-75
2022/07/13 04:19:15;;;;;;;;;;;;;;;18.21;100.00;101426.03;5014491;28;19936;-76
2022/07/13 04:21:40;;;;;;;;;;;;;;;18.24;100.00;101425.66;5027231;28;20285;-77
2022/07/13 04:24:06;;;;;;;;;;;;;;;18.30;100.00;101414.88;5026811;28;20356;-76
2022/07/13 04:26:32;;;;;;;;;;;;;;;18.35;100.00;101417.84;5019407;28;19913;-76
2022/07/13 04:28:57;;;;;;;;;;;;;;;18.40;100.00;101438.03;5027243;28;19919;-75
2022/07/13 04:31:25;;;;;;;;;;;;;;;18.31;100.00;101432.78;5027211;28;19917;-78
2022/07/13 04:33:51;;;;;;;;;;;;;;;18.33;100.00;101446.09;5060718;23;19925;-76
2022/07/13 04:36:19;;;;;;;;;;;;;;;18.40;100.00;101462.34;5030080;28;20411;-79
2022/07/13 04:38:44;;;;;;;;;;;;;;;18.41;100.00;101462.19;5029523;28;19913;-79
2022/07/13 04:41:11;;;;;;;;;;;;;;;18.45;100.00;101454.50;5045023;28;20030;-77
2022/07/13 04:43:37;;;;;;;;;;;;;;;18.32;100.00;101426.34;5020301;28;19912;-76
2022/07/13 04:46:04;;;;;;;;;;;;;;;18.43;100.00;101403.34;5010085;28;20579;-78
2022/07/13 04:48:30;;;;;;;;;;;;;;;18.47;100.00;101387.53;5041413;28;20460;-76
2022/07/13 04:50:56;;;;;;;;;;;;;;;18.43;100.00;101372.78;5024840;28;20015;-76
2022/07/13 04:53:21;;;;;;;;;;;;;;;18.49;100.00;101358.44;5026299;28;19915;-77
2022/07/13 04:55:46;;;;;;;;;;;;;;;18.42;100.00;101347.59;5041363;28;19999;-77
2022/07/13 04:58:12;;;;;;;;;;;;;;;18.46;100.00;101348.88;5009489;28;19915;-76
2022/07/13 05:00:37;;;;;;;;;;;;;;;18.63;100.00;101340.41;5033370;28;19936;-77
2022/07/13 05:03:03;;;;;;;;;;;;;;;18.61;100.00;101328.97;5041069;28;19963;-76
2022/07/13 05:05:31;;;;;;;;;;;;;;;18.71;100.00;101345.66;5025757;28;19917;-76
2022/07/13 05:07:58;;;;;;;;;;;;;;;18.63;100.00;101326.91;5041061;28;20362;-76
2022/07/13 05:10:23;;;;;;;;;;;;;;;18.70;100.00;101322.34;5025857;28;19929;-78
2022/07/13 05:12:51;;;;;;;;;;;;;;;18.77;100.00;101323.22;5024557;28;19949;-77
2022/07/13 05:15:17;;;;;;;;;;;;;;;18.80;100.00;101330.97;5025718;28;19964;-76
2022/07/13 05:17:44;;;;;;;;;;;;;;;18.77;100.00;101326.75;5009301;28;19916;-76
2022/07/13 05:20:09;;;;;;;;;;;;;;;18.79;100.00;101326.56;5031289;28;19916;-79
2022/07/13 05:22:39;;;;;;;;;;;;;;;18.85;100.00;101319.53;5022773;28;19991;-77
2022/07/13 05:25:04;;;;;;;;;;;;;;;18.96;100.00;101305.41;5038745;28;19913;-78
2022/07/13 05:27:30;;;;;;;;;;;;;;;18.96;100.00;101319.78;5038599;28;19945;-76
2022/07/13 05:29:56;;;;;;;;;;;;;;;19.05;100.00;101295.22;5017418;28;19913;-77
2022/07/13 05:32:21;;;;;;;;;;;;;;;19.11;100.00;101294.41;5023564;28;19959;-76
2022/07/13 05:34:47;;;;;;;;;;;;;;;19.18;100.00;101287.13;5024812;28;19925;-76
2022/07/13 05:37:12;;;;;;;;;;;;;;;19.35;100.00;101304.63;5041810;28;19909;-76
2022/07/13 05:39:41;;;;;;;;;;;;;;;19.40;100.00;101322.97;5038103;28;19917;-76
2022/07/13 05:42:06;;;;;;;;;;;;;;;19.45;100.00;101366.50;5020870;28;19922;-77
2022/07/13 05:44:32;;;;;;;;;;;;;;;19.48;100.00;101378.78;5037362;28;19968;-76
2022/07/13 05:46:58;;;;;;;;;;;;;;;19.49;100.00;101386.72;5045418;28;20305;-76
2022/07/13 05:49:24;;;;;;;;;;;;;;;19.52;100.00;101377.34;5029530;28;19952;-77
2022/07/13 05:51:49;;;;;;;;;;;;;;;19.53;100.00;101366.31;5020549;28;20293;-76
2022/07/13 05:54:15;;;;;;;;;;;;;;;19.63;100.00;101336.09;5020448;28;19913;-77
2022/07/13 05:56:40;;;;;;;;;;;;;;;19.71;100.00;101346.75;5025891;28;19944;-77
2022/07/13 05:59:05;;;;;;;;;;;;;;;19.74;100.00;101351.78;5026534;28;19917;-76
2022/07/13 06:01:31;;;;;;;;;;;;;;;19.77;100.00;101364.06;5028653;28;19919;-76
2022/07/13 06:03:56;;;;;;;;;;;;;;;19.71;100.00;101389.25;5044535;28;19917;-76
2022/07/13 06:06:22;;;;;;;;;;;;;;;19.69;100.00;101397.63;5036549;28;19909;-77
2022/07/13 06:08:47;;;;;;;;;;;;;;;19.71;100.00;101405.50;5029494;28;19917;-77
2022/07/13 06:11:12;;;;;;;;;;;;;;;19.74;100.00;101395.13;5026278;28;20406;-76
2022/07/13 06:13:37;;;;;;;;;;;;;;;19.46;100.00;101321.31;5045221;28;19917;-76
2022/07/13 06:16:03;;;;;;;;;;;;;;;19.39;100.00;101297.78;5020130;28;20716;-76
2022/07/13 06:18:28;;;;;;;;;;;;;;;19.39;100.00;101297.78;5036501;28;19924;-77
2022/07/13 06:20:54;;;;;;;;;;;;;;;19.29;100.00;101293.78;5028092;28;19940;-78
2022/07/13 06:23:21;;;;;;;;;;;;;;;19.40;100.00;101307.53;5029418;28;19928;-77
2022/07/13 06:25:46;;;;;;;;;;;;;;;19.48;100.00;101305.66;5041452;28;19917;-78
2022/07/13 06:28:12;;;;;;;;;;;;;;;19.57;100.00;101277.34;5026808;28;19912;-77
2022/07/13 06:30:38;;;;;;;;;;;;;;;19.72;100.00;101261.75;5044579;28;19963;-76
2022/07/13 06:33:03;;;;;;;;;;;;;;;19.82;100.00;101256.72;5019644;28;19920;-76
2022/07/13 06:35:29;;;;;;;;;;;;;;;19.79;100.00;101259.88;5025047;28;19920;-77
2022/07/13 06:37:54;;;;;;;;;;;;;;;19.80;100.00;101253.38;5036317;28;19917;-78
2022/07/13 06:40:20;;;;;;;;;;;;;;;20.08;100.00;101232.47;5025663;28;19913;-77
2022/07/13 06:42:45;;;;;;;;;;;;;;;20.30;100.00;101252.00;5027871;28;20393;-77
2022/07/13 06:45:10;;;;;;;;;;;;;;;20.42;100.00;101205.03;5044505;28;20370;-77
2022/07/13 06:47:36;;;;;;;;;;;;;;;20.58;100.00;101203.72;5024284;28;19914;-77
2022/07/13 06:50:02;;;;;;;;;;;;;;;20.80;100.00;101198.78;5015722;28;20409;-76
2022/07/13 06:52:27;;;;;;;;;;;;;;;20.90;100.00;101184.72;5044045;28;19913;-77
2022/07/13 06:54:52;;;;;;;;;;;;;;;20.93;100.00;101197.00;5028888;28;19986;-76
2022/07/13 06:57:18;;;;;;;;;;;;;;;21.21;100.00;101139.56;5043938;28;19913;-77
2022/07/13 06:59:43;;;;;;;;;;;;;;;21.57;100.00;101132.56;5019034;28;19916;-75
2022/07/13 07:02:08;;;;;;;;;;;;;;;21.52;100.00;101094.34;5013549;28;19920;-78
2022/07/13 07:04:34;;;;;;;;;;;;;;;21.82;100.00;101059.06;5011875;28;19913;-79
2022/07/13 07:07:00;;;;;;;;;;;;;;;22.18;100.00;101025.53;5043369;28;19917;-77
2022/07/13 07:09:26;;;;;;;;;;;;;;;22.46;100.00;101059.44;5027583;28;20003;-77
2022/07/13 07:11:51;;;;;;;;;;;;;;;22.55;100.00;100944.59;5043188;28;20047;-77
2022/07/13 07:14:16;;;;;;;;;;;;;;;23.04;100.00;100966.09;5011620;28;20342;-77
2022/07/13 07:16:42;;;;;;;;;;;;;;;23.70;100.00;100954.84;5042541;28;19916;-77
2022/07/13 07:19:08;;;;;;;;;;;;;;;23.85;100.00;100936.06;5027585;28;19909;-77
2022/07/13 07:21:33;;;;;;;;;;;;;;;23.66;100.00;100792.88;5015013;28;19940;-77
2022/07/13 07:23:59;;;;;;;;;;;;;;;23.26;100.00;100868.22;5022194;28;20361;-79
2022/07/13 07:26:24;;;;;;;;;;;;;;;23.77;100.00;100917.41;5040648;28;19917;-79
2022/07/13 07:28:49;;;;;;;;;;;;;;;24.56;100.00;100935.56;5005349;28;19909;-79
2022/07/13 07:31:14;;;;;;;;;;;;;;;25.23;100.00;100942.75;5025972;28;19912;-77
2022/07/13 07:33:40;;;;;;;;;;;;;;;24.56;100.00;100860.00;5042432;28;19935;-77
2022/07/13 07:36:05;;;;;;;;;;;;;;;24.74;100.00;100814.34;5042670;28;20278;-77
2022/07/13 07:38:31;;;;;;;;;;;;;;;24.92;100.00;100923.25;5027241;28;19913;-78
2022/07/13 07:40:58;;;;;;;;;;;;;;;25.94;100.00;100884.41;5027314;28;19919;-75
2022/07/13 07:43:24;;;;;;;;;;;;;;;26.57;99.21;100859.94;5042840;28;20079;-76
2022/07/13 07:45:49;;;;;;;;;;;;;;;27.13;91.44;100799.88;5034485;28;20479;-77
2022/07/13 07:48:14;;;;;;;;;;;;;;;26.62;95.73;100786.03;5027437;28;19916;-78
2022/07/13 07:50:40;;;;;;;;;;;;;;;26.36;87.90;100597.06;5042807;28;20011;-78
2022/07/13 07:53:05;;;;;;;;;;;;;;;26.35;89.87;100668.50;5002891;28;19913;-78
2022/07/13 07:55:31;;;;;;;;;;;;;;;25.97;94.56;100717.06;5043002;28;19917;-78
2022/07/13 07:57:56;;;;;;;;;;;;;;;25.64;100.00;100768.25;5011073;28;19916;-78
2022/07/13 08:00:22;;;;;;;;;;;;;;;25.04;100.00;100713.63;5025320;28;20266;-79
2022/07/13 08:02:47;;;;;;;;;;;;;;;25.21;100.00;100874.69;5021433;28;19913;-78
2022/07/13 08:05:14;;;;;;;;;;;;;;;24.83;100.00;100761.75;5025661;28;20251;-78
2022/07/13 08:07:42;;;;;;;;;;;;;;;24.20;100.00;100758.53;5011275;28;19999;-79
2022/07/13 08:10:07;;;;;;;;;;;;;;;24.54;100.00;100959.59;5019256;28;19967;-77
2022/07/13 08:12:33;;;;;;;;;;;;;;;24.11;100.00;100978.22;5026071;28;19974;-78
2022/07/13 08:14:59;;;;;;;;;;;;;;;23.84;100.00;100869.00;5027542;28;20761;-79
2022/07/13 08:17:24;;;;;;;;;;;;;;;23.47;100.00;100980.31;5010961;28;19912;-79
2022/07/13 08:19:49;;;;;;;;;;;;;;;22.87;100.00;100986.91;5042395;28;19912;-79
2022/07/13 08:22:15;;;;;;;;;;;;;;;23.00;100.00;100994.88;5010941;28;19913;-79
2022/07/13 08:24:40;;;;;;;;;;;;;;;23.11;100.00;101045.78;5027261;28;20428;-79
2022/07/13 08:27:05;;;;;;;;;;;;;;;22.94;100.00;101115.56;5011131;28;19913;-79
2022/07/13 08:29:31;;;;;;;;;;;;;;;22.64;100.00;101148.28;5010338;28;19956;-79
2022/07/13 08:31:56;;;;;;;;;;;;;;;22.42;100.00;101161.63;5043367;28;20011;-79
2022/07/13 08:39:49;;;;;;;;;;;;;;;21.64;100.00;101267.25;5036417;28;19917;-78
2022/07/13 08:42:15;;;;;;;;;;;;;;;21.40;100.00;101228.19;5026952;28;19913;-78
2022/07/13 08:44:41;;;;;;;;;;;;;;;21.47;100.00;101196.38;5010232;28;19917;-77
2022/07/13 08:47:06;;;;;;;;;;;;;;;21.60;100.00;101236.16;5027233;28;19913;-78
2022/07/13 08:49:32;;;;;;;;;;;;;;;21.61;100.00;101226.09;5010287;28;20274;-77
2022/07/13 08:51:58;;;;;;;;;;;;;;;21.81;100.00;101177.00;5010569;28;19916;-77
2022/07/13 08:54:23;;;;;;;;;;;;;;;21.86;100.00;101120.88;5009696;28;20635;-78
2022/07/13 08:56:49;;;;;;;;;;;;;;;21.67;100.00;100986.13;5041889;28;20015;-79
2022/07/13 08:59:14;;;;;;;;;;;;;;;21.69;100.00;100962.28;5031381;28;19917;-78
2022/07/13 09:01:39;;;;;;;;;;;;;;;21.72;100.00;100994.41;5041824;28;19999;-78
2022/07/13 09:04:09;;;;;;;;;;;;;;;21.81;100.00;100984.06;5026250;28;20016;-79
2022/07/13 09:06:38;;;;;;;;;;;;;;;21.93;100.00;101023.78;5033715;28;19912;-78
2022/07/13 09:09:03;;;;;;;;;;;;;;;22.01;100.00;101033.53;5025740;28;19975;-79
2022/07/13 09:11:28;;;;;;;;;;;;;;;22.20;100.00;100974.47;5026675;28;19917;-77
2022/07/13 09:13:55;;;;;;;;;;;;;;;22.43;100.00;100995.44;5010081;28;19936;-79
2022/07/13 09:16:21;;;;;;;;;;;;;;;22.24;100.00;100885.09;5009688;28;19920;-77
2022/07/13 09:18:48;;;;;;;;;;;;;;;22.33;100.00;100938.06;5041316;28;19939;-77
2022/07/13 09:21:13;;;;;;;;;;;;;;;22.16;100.00;100918.06;5017702;28;20008;-77
2022/07/13 09:23:39;;;;;;;;;;;;;;;22.33;100.00;100985.13;5040742;28;20023;-79
2022/07/13 09:26:05;;;;;;;;;;;;;;;22.67;100.00;100924.72;5026257;28;19971;-77
2022/07/13 09:28:41;;;;;;;;;;;;;;;22.93;100.00;101005.03;5025594;28;19932;-77
2022/07/13 09:31:06;;;;;;;;;;;;;;;23.27;100.00;101033.31;5025778;28;20373;-78
2022/07/13 09:33:33;;;;;;;;;;;;;;;23.48;100.00;101053.63;5024480;28;19944;-77
2022/07/13 09:35:58;;;;;;;;;;;;;;;23.38;100.00;100953.44;5026070;28;19913;-78
2022/07/13 09:38:37;;;;;;;;;;;;;;;23.72;100.00;100974.53;5009064;28;20370;-79
2022/07/13 09:41:21;;;;;;;;;;;;;;;23.84;100.00;100926.25;5025294;28;19913;-77
2022/07/13 09:46:37;;;;;;;;;;;;;;;23.77;100.00;100901.03;5018108;28;19967;-77
2022/07/13 09:49:02;;;;;;;;;;;;;;;24.12;100.00;101000.91;5023677;28;19909;-77
2022/07/13 09:51:27;;;;;;;;;;;;;;;24.30;100.00;100965.16;5043555;28;19913;-77
2022/07/13 09:53:54;;;;;;;;;;;;;;;24.76;100.00;100960.44;5026387;28;19909;-77
2022/07/13 09:56:21;;;;;;;;;;;;;;;26.01;100.00;100888.59;5025468;28;19917;-78
2022/07/13 09:58:46;;;;;;;;;;;;;;;26.39;100.00;100711.50;5008974;28;19908;-77
2022/07/13 10:01:11;;;;;;;;;;;;;;;25.63;100.00;100731.88;5025093;28;19970;-77
2022/07/13 10:03:37;;;;;;;;;;;;;;;25.91;100.00;100798.25;5040866;28;19935;-78
2022/07/13 10:06:05;;;;;;;;;;;;;;;26.06;100.00;100800.28;5035669;28;19964;-77
2022/07/13 10:08:30;;;;;;;;;;;;;;;26.42;95.91;100693.72;5024373;28;19956;-78
2022/07/13 10:10:55;;;;;;;;;;;;;;;27.07;96.58;100811.94;5040984;28;19957;-75
2022/07/13 10:13:21;;;;;;;;;;;;;;;27.40;85.85;100667.25;5024202;28;20000;-77
2022/07/13 10:15:47;;;;;;;;;;;;;;;28.20;76.30;100612.38;5025774;28;19913;-77
2022/07/13 10:18:24;;;;;;;;;;;;;;;28.26;73.28;100561.00;5024932;28;19948;-76
2022/07/13 10:20:52;;;;;;;;;;;;;;;28.02;79.46;100660.50;5024886;28;19917;-77
2022/07/13 10:23:39;;;;;;;;;;;;;;;28.33;69.81;100495.63;5039484;28;20350;-77
2022/07/13 10:26:21;;;;;;;;;;;;;;;28.53;72.44;100599.84;5024979;28;19963;-75
2022/07/13 10:29:03;;;;;;;;;;;;;;;28.05;72.75;100557.59;5028288;28;19920;-75
2022/07/13 10:31:29;;;;;;;;;;;;;;;28.94;66.65;100565.69;5019551;28;19917;-77
2022/07/13 10:33:55;;;;;;;;;;;;;;;28.24;68.88;100528.38;5031429;28;19917;-78
2022/07/13 10:36:39;;;;;;;;;;;;;;;29.13;66.38;100621.63;5033730;28;19962;-78
2022/07/13 10:39:11;;;;;;;;;;;;;;;28.31;64.53;100388.06;5048304;28;20020;-78
2022/07/13 10:41:54;;;;;;;;;;;;;;;28.20;68.50;100519.06;5032407;28;19912;-78
2022/07/13 10:44:29;;;;;;;;;;;;;;;29.34;64.43;100583.75;5040923;28;19924;-77
2022/07/13 10:46:55;;;;;;;;;;;;;;;28.74;63.74;100434.88;5040821;28;19995;-78
2022/07/13 10:49:47;;;;;;;;;;;;;;;28.77;63.93;100442.53;5033697;28;19932;-78
2022/07/13 10:52:19;;;;;;;;;;;;;;;28.50;63.19;100363.47;5030623;28;19919;-78
2022/07/13 10:55:03;;;;;;;;;;;;;;;28.86;62.20;100450.94;5033483;28;19924;-78
2022/07/13 10:57:28;;;;;;;;;;;;;;;29.03;62.61;100501.59;5045135;28;19940;-78
2022/07/13 10:59:59;;;;;;;;;;;;;;;28.36;60.82;100281.78;5043516;28;19940;-78
2022/07/13 11:02:44;;;;;;;;;;;;;;;28.99;61.21;100445.56;5032788;28;20354;-78
2022/07/13 11:05:10;;;;;;;;;;;;;;;29.77;56.67;100413.22;5032101;28;19917;-78
2022/07/13 11:07:40;;;;;;;;;;;;;;;29.88;59.42;100534.94;5047730;28;19996;-79
2022/07/13 11:10:14;;;;;;;;;;;;;;;29.57;55.00;100237.47;5031852;28;20359;-78
2022/07/13 11:12:53;;;;;;;;;;;;;;;29.83;57.70;100441.47;5025613;28;20270;-78
2022/07/13 11:15:19;;;;;;;;;;;;;;;29.69;55.22;100283.78;5047449;28;20003;-78
2022/07/13 11:17:51;;;;;;;;;;;;;;;29.43;56.37;100347.41;5032818;28;19959;-78
2022/07/13 11:20:16;;;;;;;;;;;;;;;30.02;56.66;100439.50;5046504;28;19962;-78
2022/07/13 11:25:55;;;;;;;;;;;;;;;29.71;54.53;100243.03;5027362;28;19913;-78
2022/07/13 11:28:26;;;;;;;;;;;;;;;30.40;53.21;100336.75;5031094;28;19959;-78
2022/07/13 11:30:56;;;;;;;;;;;;;;;30.79;51.99;100322.44;5048059;28;20012;-78
2022/07/13 11:33:21;;;;;;;;;;;;;;;31.04;50.80;100301.78;5047796;28;19924;-78
2022/07/13 11:35:47;;;;;;;;;;;;;;;31.57;49.63;100325.13;5032342;28;19909;-78
2022/07/13 11:38:14;;;;;;;;;;;;;;;31.16;49.04;100192.91;5048413;28;20448;-79
2022/07/13 11:40:39;;;;;;;;;;;;;;;31.83;49.18;100327.22;5052737;28;19967;-78
2022/07/13 11:43:04;;;;;;;;;;;;;;;31.16;48.17;100063.31;5038674;28;19928;-76
2022/07/13 11:45:30;;;;;;;;;;;;;;;30.82;49.75;100148.22;5050449;28;19916;-76
2022/07/13 11:47:57;;;;;;;;;;;;;;;30.83;49.33;100162.81;5053696;28;19987;-78
2022/07/13 11:50:23;;;;;;;;;;;;;;;30.94;48.70;100139.41;5036874;28;19909;-78
2022/07/13 11:52:48;;;;;;;;;;;;;;;29.78;50.00;99971.09;5039245;28;19982;-78
2022/07/13 11:55:13;;;;;;;;;;;;;;;29.20;51.76;99958.88;5041872;28;19916;-77
2022/07/13 11:57:39;;;;;;;;;;;;;;;29.99;49.69;100038.34;5051520;28;20266;-78
2022/07/13 12:00:06;;;;;;;;;;;;;;;29.92;52.12;100144.41;5038495;28;19944;-78
2022/07/13 12:02:38;;;;;;;;;;;;;;;30.22;50.69;100131.94;5056041;28;20003;-79
2022/07/13 12:05:04;;;;;;;;;;;;;;;30.79;49.56;100214.13;5019975;28;20048;-78
2022/07/13 12:07:30;;;;;;;;;;;;;;;30.92;50.27;100260.16;5036420;28;19913;-79
2022/07/13 12:09:59;;;;;;;;;;;;;;;29.06;51.26;99901.13;5034430;28;20389;-78
2022/07/13 12:12:28;;;;;;;;;;;;;;;29.32;53.98;100162.56;5017106;28;19920;-79
2022/07/13 12:14:55;;;;;;;;;;;;;;;29.22;54.52;100192.97;5033089;28;19913;-78
2022/07/13 12:17:20;;;;;;;;;;;;;;;28.31;56.10;100050.47;5035275;28;19909;-78
2022/07/13 12:19:46;;;;;;;;;;;;;;;28.60;57.23;100204.06;5030741;28;19924;-78
2022/07/13 12:22:11;;;;;;;;;;;;;;;28.58;57.19;100157.69;5017501;28;19912;-77
2022/07/13 12:24:42;;;;;;;;;;;;;;;28.96;56.25;100228.25;5016995;28;19912;-78
2022/07/13 12:27:07;;;;;;;;;;;;;;;29.57;55.94;100342.81;5032574;28;19913;-78
2022/07/13 12:29:33;;;;;;;;;;;;;;;30.13;54.52;100382.34;5047132;28;19923;-77
2022/07/13 12:31:59;;;;;;;;;;;;;;;30.17;52.31;100273.25;5035115;28;20312;-79
2022/07/13 12:34:25;;;;;;;;;;;;;;;30.22;50.53;100160.28;5031864;28;19920;-78
2022/07/13 12:36:51;;;;;;;;;;;;;;;30.43;49.54;100181.91;5032960;28;19919;-79